Aviation Digital Data Service (ADDS)

Output produced by METARs form (0240 UTC 22 February 2019)
found at http://www.aviationweather.gov/metar/data/
 
METAR text: TLPL 220100Z 07018KT 9999 FEW026 SCT042 26/19 Q1018 NOSIG
Conditions at: TLPL (HEWANORRA INTL , LC) observed 0100 UTC 22 February 2019
Temperature: 26.0°C (79°F)
Dewpoint: 19.0°C (66°F) [RH = 65%]
Pressure (altimeter): 30.06 inches Hg (1018.0 mb)
Winds: from the ENE (70 degrees) at 21 MPH (18 knots; 9.3 m/s)
Visibility: 6 or more miles (10+ km)
Ceiling: at least 12,000 feet AGL
Clouds: few clouds at 2600 feet AGL
scattered clouds at 4200 feet AGL
Weather: no significant weather observed at this time

METAR text: TLPL 220000Z 07024KT 9999 FEW026 SCT042 26/21 Q1017 NOSIG
Conditions at: TLPL (HEWANORRA INTL , LC) observed 0000 UTC 22 February 2019
Temperature: 26.0°C (79°F)
Dewpoint: 21.0°C (70°F) [RH = 74%]
Pressure (altimeter): 30.03 inches Hg (1017.0 mb)
Winds: from the ENE (70 degrees) at 28 MPH (24 knots; 12.3 m/s)
Visibility: 6 or more miles (10+ km)
Ceiling: at least 12,000 feet AGL
Clouds: few clouds at 2600 feet AGL
scattered clouds at 4200 feet AGL
Weather: no significant weather observed at this time

METAR text: TLPL 212300Z 07017KT 9999 FEW026 BKN042 26/20 Q1016 NOSIG
Conditions at: TLPL (HEWANORRA INTL , LC) observed 2300 UTC 21 February 2019
Temperature: 26.0°C (79°F)
Dewpoint: 20.0°C (68°F) [RH = 70%]
Pressure (altimeter): 30.00 inches Hg (1016.0 mb)
Winds: from the ENE (70 degrees) at 20 MPH (17 knots; 8.7 m/s)
Visibility: 6 or more miles (10+ km)
Ceiling: 4200 feet AGL
Clouds: few clouds at 2600 feet AGL
broken clouds at 4200 feet AGL
Weather: no significant weather observed at this time

METAR text: TLPL 212200Z 07016KT 9999 FEW026 26/20 Q1016 NOSIG
Conditions at: TLPL (HEWANORRA INTL , LC) observed 2200 UTC 21 February 2019
Temperature: 26.0°C (79°F)
Dewpoint: 20.0°C (68°F) [RH = 70%]
Pressure (altimeter): 30.00 inches Hg (1016.0 mb)
Winds: from the ENE (70 degrees) at 18 MPH (16 knots; 8.2 m/s)
Visibility: 6 or more miles (10+ km)
Ceiling: at least 12,000 feet AGL
Clouds: few clouds at 2600 feet AGL
Weather: no significant weather observed at this time

METAR text: TLPL 212100Z 07020KT 9999 FEW027 SCT042 27/20 Q1016 NOSIG
Conditions at: TLPL (HEWANORRA INTL , LC) observed 2100 UTC 21 February 2019
Temperature: 27.0°C (81°F)
Dewpoint: 20.0°C (68°F) [RH = 66%]
Pressure (altimeter): 30.00 inches Hg (1016.0 mb)
Winds: from the ENE (70 degrees) at 23 MPH (20 knots; 10.3 m/s)
Visibility: 6 or more miles (10+ km)
Ceiling: at least 12,000 feet AGL
Clouds: few clouds at 2700 feet AGL
scattered clouds at 4200 feet AGL
Weather: no significant weather observed at this time

METAR text: TLPL 212000Z 08020KT 9999 FEW027 BKN042 28/19 Q1016 NOSIG
Conditions at: TLPL (HEWANORRA INTL , LC) observed 2000 UTC 21 February 2019
Temperature: 28.0°C (82°F)
Dewpoint: 19.0°C (66°F) [RH = 58%]
Pressure (altimeter): 30.00 inches Hg (1016.0 mb)
Winds: from the E (80 degrees) at 23 MPH (20 knots; 10.3 m/s)
Visibility: 6 or more miles (10+ km)
Ceiling: 4200 feet AGL
Clouds: few clouds at 2700 feet AGL
broken clouds at 4200 feet AGL
Weather: no significant weather observed at this time

METAR text: TLPL 211900Z 08024KT 9999 SCT027 28/20 Q1016 NOSIG
Conditions at: TLPL (HEWANORRA INTL , LC) observed 1900 UTC 21 February 2019
Temperature: 28.0°C (82°F)
Dewpoint: 20.0°C (68°F) [RH = 62%]
Pressure (altimeter): 30.00 inches Hg (1016.0 mb)
Winds: from the E (80 degrees) at 28 MPH (24 knots; 12.3 m/s)
Visibility: 6 or more miles (10+ km)
Ceiling: at least 12,000 feet AGL
Clouds: scattered clouds at 2700 feet AGL
Weather: no significant weather observed at this time

METAR text: TLPL 211800Z 08020KT 9999 FEW026 28/20 Q1017 NOSIG
Conditions at: TLPL (HEWANORRA INTL , LC) observed 1800 UTC 21 February 2019
Temperature: 28.0°C (82°F)
Dewpoint: 20.0°C (68°F) [RH = 62%]
Pressure (altimeter): 30.03 inches Hg (1017.0 mb)
Winds: from the E (80 degrees) at 23 MPH (20 knots; 10.3 m/s)
Visibility: 6 or more miles (10+ km)
Ceiling: at least 12,000 feet AGL
Clouds: few clouds at 2600 feet AGL
Weather: no significant weather observed at this time

METAR text: TLPL 211700Z 06023KT 9999 FEW023 27/21 Q1017 NOSIG
Conditions at: TLPL (HEWANORRA INTL , LC) observed 1700 UTC 21 February 2019
Temperature: 27.0°C (81°F)
Dewpoint: 21.0°C (70°F) [RH = 70%]
Pressure (altimeter): 30.03 inches Hg (1017.0 mb)
Winds: from the ENE (60 degrees) at 26 MPH (23 knots; 11.8 m/s)
Visibility: 6 or more miles (10+ km)
Ceiling: at least 12,000 feet AGL
Clouds: few clouds at 2300 feet AGL
Weather: no significant weather observed at this time

METAR text: TLPL 211600Z 08020KT 9999 VCSH FEW022 BKN040 26/23 Q1018 NOSIG
Conditions at: TLPL (HEWANORRA INTL , LC) observed 1600 UTC 21 February 2019
Temperature: 26.0°C (79°F)
Dewpoint: 23.0°C (73°F) [RH = 84%]
Pressure (altimeter): 30.06 inches Hg (1018.0 mb)
Winds: from the E (80 degrees) at 23 MPH (20 knots; 10.3 m/s)
Visibility: 6 or more miles (10+ km)
Ceiling: 4000 feet AGL
Clouds: few clouds at 2200 feet AGL
broken clouds at 4000 feet AGL
Weather: VCSH  (showers in vicinity)

METAR text: TLPL 211500Z 08020KT 5000 -RA SCT023 BKN040 25/22 Q1019 TEMP0 SHRA
Conditions at: TLPL (HEWANORRA INTL , LC) observed 1500 UTC 21 February 2019
Temperature: 25.0°C (77°F)
Dewpoint: 22.0°C (72°F) [RH = 83%]
Pressure (altimeter): 30.09 inches Hg (1019.0 mb)
Winds: from the E (80 degrees) at 23 MPH (20 knots; 10.3 m/s)
Visibility: 3 miles ( 5 km)
Ceiling: 4000 feet AGL
Clouds: scattered clouds at 2300 feet AGL
broken clouds at 4000 feet AGL
Weather: -RA SHRA  (light rain, rain showers)

METAR text: TLPL 211400Z 08017KT 9999 VCSH SCT025 28/20 Q1019 TEMPO SHRA
Conditions at: TLPL (HEWANORRA INTL , LC) observed 1400 UTC 21 February 2019
Temperature: 28.0°C (82°F)
Dewpoint: 20.0°C (68°F) [RH = 62%]
Pressure (altimeter): 30.09 inches Hg (1019.0 mb)
Winds: from the E (80 degrees) at 20 MPH (17 knots; 8.7 m/s)
Visibility: 6 or more miles (10+ km)
Ceiling: at least 12,000 feet AGL
Clouds: scattered clouds at 2500 feet AGL
Weather: VCSH  (showers in vicinity)

METAR text: TLPL 211300Z 09026KT 9999 VCSH FEW025 BKN042 27/20 Q1018 NOSIG
Conditions at: TLPL (HEWANORRA INTL , LC) observed 1300 UTC 21 February 2019
Temperature: 27.0°C (81°F)
Dewpoint: 20.0°C (68°F) [RH = 66%]
Pressure (altimeter): 30.06 inches Hg (1018.0 mb)
Winds: from the E (90 degrees) at 30 MPH (26 knots; 13.4 m/s)
Visibility: 6 or more miles (10+ km)
Ceiling: 4200 feet AGL
Clouds: few clouds at 2500 feet AGL
broken clouds at 4200 feet AGL
Weather: VCSH  (showers in vicinity)

METAR text: TLPL 211200Z 07020KT 9999 FEW025 BKN042 25/19 Q1018 NOSIG
Conditions at: TLPL (HEWANORRA INTL , LC) observed 1200 UTC 21 February 2019
Temperature: 25.0°C (77°F)
Dewpoint: 19.0°C (66°F) [RH = 69%]
Pressure (altimeter): 30.06 inches Hg (1018.0 mb)
Winds: from the ENE (70 degrees) at 23 MPH (20 knots; 10.3 m/s)
Visibility: 6 or more miles (10+ km)
Ceiling: 4200 feet AGL
Clouds: few clouds at 2500 feet AGL
broken clouds at 4200 feet AGL
Weather: no significant weather observed at this time

METAR text: TLPL 211100Z 07016KT 9999 -SHRA SCT022 BKN040 25/21 Q1017 TEMPO SHRA
Conditions at: TLPL (HEWANORRA INTL , LC) observed 1100 UTC 21 February 2019
Temperature: 25.0°C (77°F)
Dewpoint: 21.0°C (70°F) [RH = 79%]
Pressure (altimeter): 30.03 inches Hg (1017.0 mb)
Winds: from the ENE (70 degrees) at 18 MPH (16 knots; 8.2 m/s)
Visibility: 6 or more miles (10+ km)
Ceiling: 4000 feet AGL
Clouds: scattered clouds at 2200 feet AGL
broken clouds at 4000 feet AGL
Weather: -SHRA  (light rain showers)

METAR text: TLPL 211000Z 07020G34KT 9999 SCT022 BKN040 24/19 Q1016 TEMPO SHRA
Conditions at: TLPL (HEWANORRA INTL , LC) observed 1000 UTC 21 February 2019
Temperature: 24.0°C (75°F)
Dewpoint: 19.0°C (66°F) [RH = 74%]
Pressure (altimeter): 30.00 inches Hg (1016.0 mb)
Winds: from the ENE (70 degrees) at 23 MPH (20 knots; 10.3 m/s)
gusting to 39 MPH (34 knots; 17.5 m/s)
Visibility: 6 or more miles (10+ km)
Ceiling: 4000 feet AGL
Clouds: scattered clouds at 2200 feet AGL
broken clouds at 4000 feet AGL
Weather: no significant weather observed at this time

METAR text: TLPL 210900Z 07022KT 9999 SCT022 BKN040 24/20 Q1016 TEMPO SHRA
Conditions at: TLPL (HEWANORRA INTL , LC) observed 0900 UTC 21 February 2019
Temperature: 24.0°C (75°F)
Dewpoint: 20.0°C (68°F) [RH = 78%]
Pressure (altimeter): 30.00 inches Hg (1016.0 mb)
Winds: from the ENE (70 degrees) at 25 MPH (22 knots; 11.3 m/s)
Visibility: 6 or more miles (10+ km)
Ceiling: 4000 feet AGL
Clouds: scattered clouds at 2200 feet AGL
broken clouds at 4000 feet AGL
Weather: no significant weather observed at this time

METAR text: TLPL 210800Z 08020KT 9999 BKN024 25/21 Q1015 TEMPO SHRA
Conditions at: TLPL (HEWANORRA INTL , LC) observed 0800 UTC 21 February 2019
Temperature: 25.0°C (77°F)
Dewpoint: 21.0°C (70°F) [RH = 79%]
Pressure (altimeter): 29.97 inches Hg (1015.0 mb)
Winds: from the E (80 degrees) at 23 MPH (20 knots; 10.3 m/s)
Visibility: 6 or more miles (10+ km)
Ceiling: 2400 feet AGL
Clouds: broken clouds at 2400 feet AGL
Weather: no significant weather observed at this time

METAR text: TLPL 210700Z 07018KT 9999 BKN024 25/20 Q1015 NOSIG
Conditions at: TLPL (HEWANORRA INTL , LC) observed 0700 UTC 21 February 2019
Temperature: 25.0°C (77°F)
Dewpoint: 20.0°C (68°F) [RH = 74%]
Pressure (altimeter): 29.97 inches Hg (1015.0 mb)
Winds: from the ENE (70 degrees) at 21 MPH (18 knots; 9.3 m/s)
Visibility: 6 or more miles (10+ km)
Ceiling: 2400 feet AGL
Clouds: broken clouds at 2400 feet AGL
Weather: no significant weather observed at this time

METAR text: TLPL 210600Z 08021KT 9999 SCT024 25/20 Q1016 NOSIG
Conditions at: TLPL (HEWANORRA INTL , LC) observed 0600 UTC 21 February 2019
Temperature: 25.0°C (77°F)
Dewpoint: 20.0°C (68°F) [RH = 74%]
Pressure (altimeter): 30.00 inches Hg (1016.0 mb)
Winds: from the E (80 degrees) at 24 MPH (21 knots; 10.8 m/s)
Visibility: 6 or more miles (10+ km)
Ceiling: at least 12,000 feet AGL
Clouds: scattered clouds at 2400 feet AGL
Weather: no significant weather observed at this time

METAR text: TLPL 210500Z 08020KT 9999 BKN024 25/20 Q1016 NOSIG
Conditions at: TLPL (HEWANORRA INTL , LC) observed 0500 UTC 21 February 2019
Temperature: 25.0°C (77°F)
Dewpoint: 20.0°C (68°F) [RH = 74%]
Pressure (altimeter): 30.00 inches Hg (1016.0 mb)
Winds: from the E (80 degrees) at 23 MPH (20 knots; 10.3 m/s)
Visibility: 6 or more miles (10+ km)
Ceiling: 2400 feet AGL
Clouds: broken clouds at 2400 feet AGL
Weather: no significant weather observed at this time

METAR text: TLPL 210430Z 08015KT 9999 FEW017 SCT025 25/21 Q1017 NOSIG
Conditions at: TLPL (HEWANORRA INTL , LC) observed 0430 UTC 21 February 2019
Temperature: 25.0°C (77°F)
Dewpoint: 21.0°C (70°F) [RH = 79%]
Pressure (altimeter): 30.03 inches Hg (1017.0 mb)
Winds: from the E (80 degrees) at 17 MPH (15 knots; 7.7 m/s)
Visibility: 6 or more miles (10+ km)
Ceiling: at least 12,000 feet AGL
Clouds: few clouds at 1700 feet AGL
scattered clouds at 2500 feet AGL
Weather: no significant weather observed at this time

METAR text: TLPL 210300Z 07019KT 9999 FEW017 SCT024 25/21 Q1017 TEMPO SHRA
Conditions at: TLPL (HEWANORRA INTL , LC) observed 0300 UTC 21 February 2019
Temperature: 25.0°C (77°F)
Dewpoint: 21.0°C (70°F) [RH = 79%]
Pressure (altimeter): 30.03 inches Hg (1017.0 mb)
Winds: from the ENE (70 degrees) at 22 MPH (19 knots; 9.8 m/s)
Visibility: 6 or more miles (10+ km)
Ceiling: at least 12,000 feet AGL
Clouds: few clouds at 1700 feet AGL
scattered clouds at 2400 feet AGL
Weather: no significant weather observed at this time

METAR text: TLPL 210200Z 06018KT 9999 -SHRA SCT018 SCT040 25/21 Q1017 NOSIG
Conditions at: TLPL (HEWANORRA INTL , LC) observed 0200 UTC 21 February 2019
Temperature: 25.0°C (77°F)
Dewpoint: 21.0°C (70°F) [RH = 79%]
Pressure (altimeter): 30.03 inches Hg (1017.0 mb)
Winds: from the ENE (60 degrees) at 21 MPH (18 knots; 9.3 m/s)
Visibility: 6 or more miles (10+ km)
Ceiling: at least 12,000 feet AGL
Clouds: scattered clouds at 1800 feet AGL
scattered clouds at 4000 feet AGL
Weather: -SHRA  (light rain showers)

METAR text: TLPL 210100Z 07019KT 9999 SCT024 25/20 Q1017 NOSIG
Conditions at: TLPL (HEWANORRA INTL , LC) observed 0100 UTC 21 February 2019
Temperature: 25.0°C (77°F)
Dewpoint: 20.0°C (68°F) [RH = 74%]
Pressure (altimeter): 30.03 inches Hg (1017.0 mb)
Winds: from the ENE (70 degrees) at 22 MPH (19 knots; 9.8 m/s)
Visibility: 6 or more miles (10+ km)
Ceiling: at least 12,000 feet AGL
Clouds: scattered clouds at 2400 feet AGL
Weather: no significant weather observed at this time

METAR text: TLPL 210000Z 07020KT 9999 FEW025 25/20 Q1016 NOSIG
Conditions at: TLPL (HEWANORRA INTL , LC) observed 0000 UTC 21 February 2019
Temperature: 25.0°C (77°F)
Dewpoint: 20.0°C (68°F) [RH = 74%]
Pressure (altimeter): 30.00 inches Hg (1016.0 mb)
Winds: from the ENE (70 degrees) at 23 MPH (20 knots; 10.3 m/s)
Visibility: 6 or more miles (10+ km)
Ceiling: at least 12,000 feet AGL
Clouds: few clouds at 2500 feet AGL
Weather: no significant weather observed at this time

METAR text: TLPL 202300Z 07020KT 9999 FEW020 26/21 Q1015 NOSIG
Conditions at: TLPL (HEWANORRA INTL , LC) observed 2300 UTC 20 February 2019
Temperature: 26.0°C (79°F)
Dewpoint: 21.0°C (70°F) [RH = 74%]
Pressure (altimeter): 29.97 inches Hg (1015.0 mb)
Winds: from the ENE (70 degrees) at 23 MPH (20 knots; 10.3 m/s)
Visibility: 6 or more miles (10+ km)
Ceiling: at least 12,000 feet AGL
Clouds: few clouds at 2000 feet AGL
Weather: no significant weather observed at this time

METAR text: TLPL 202200Z 07018KT 9999 FEW018 SCT025 26/21 Q1015 NOSIG
Conditions at: TLPL (HEWANORRA INTL , LC) observed 2200 UTC 20 February 2019
Temperature: 26.0°C (79°F)
Dewpoint: 21.0°C (70°F) [RH = 74%]
Pressure (altimeter): 29.97 inches Hg (1015.0 mb)
Winds: from the ENE (70 degrees) at 21 MPH (18 knots; 9.3 m/s)
Visibility: 6 or more miles (10+ km)
Ceiling: at least 12,000 feet AGL
Clouds: few clouds at 1800 feet AGL
scattered clouds at 2500 feet AGL
Weather: no significant weather observed at this time

METAR text: TLPL 202100Z 08018KT 9999 FEW021 27/22 Q1015 NOSIG
Conditions at: TLPL (HEWANORRA INTL , LC) observed 2100 UTC 20 February 2019
Temperature: 27.0°C (81°F)
Dewpoint: 22.0°C (72°F) [RH = 74%]
Pressure (altimeter): 29.97 inches Hg (1015.0 mb)
Winds: from the E (80 degrees) at 21 MPH (18 knots; 9.3 m/s)
Visibility: 6 or more miles (10+ km)
Ceiling: at least 12,000 feet AGL
Clouds: few clouds at 2100 feet AGL
Weather: no significant weather observed at this time

METAR text: TLPL 202000Z 07020KT 9999 -SHRA SCT023 28/21 Q1015 NOSIG
Conditions at: TLPL (HEWANORRA INTL , LC) observed 2000 UTC 20 February 2019
Temperature: 28.0°C (82°F)
Dewpoint: 21.0°C (70°F) [RH = 66%]
Pressure (altimeter): 29.97 inches Hg (1015.0 mb)
Winds: from the ENE (70 degrees) at 23 MPH (20 knots; 10.3 m/s)
Visibility: 6 or more miles (10+ km)
Ceiling: at least 12,000 feet AGL
Clouds: scattered clouds at 2300 feet AGL
Weather: -SHRA  (light rain showers)

METAR text: TLPL 201900Z 08018KT 9999 SCT026 28/21 Q1015 NOSIG
Conditions at: TLPL (HEWANORRA INTL , LC) observed 1900 UTC 20 February 2019
Temperature: 28.0°C (82°F)
Dewpoint: 21.0°C (70°F) [RH = 66%]
Pressure (altimeter): 29.97 inches Hg (1015.0 mb)
Winds: from the E (80 degrees) at 21 MPH (18 knots; 9.3 m/s)
Visibility: 6 or more miles (10+ km)
Ceiling: at least 12,000 feet AGL
Clouds: scattered clouds at 2600 feet AGL
Weather: no significant weather observed at this time

METAR text: TLPL 201800Z 08024KT 9999 SCT026 29/20 Q1015 NOSIG
Conditions at: TLPL (HEWANORRA INTL , LC) observed 1800 UTC 20 February 2019
Temperature: 29.0°C (84°F)
Dewpoint: 20.0°C (68°F) [RH = 58%]
Pressure (altimeter): 29.97 inches Hg (1015.0 mb)
Winds: from the E (80 degrees) at 28 MPH (24 knots; 12.3 m/s)
Visibility: 6 or more miles (10+ km)
Ceiling: at least 12,000 feet AGL
Clouds: scattered clouds at 2600 feet AGL
Weather: no significant weather observed at this time

METAR text: TLPL 201700Z 08018KT 9999 SCT026 29/21 Q1016 NOSIG
Conditions at: TLPL (HEWANORRA INTL , LC) observed 1700 UTC 20 February 2019
Temperature: 29.0°C (84°F)
Dewpoint: 21.0°C (70°F) [RH = 62%]
Pressure (altimeter): 30.00 inches Hg (1016.0 mb)
Winds: from the E (80 degrees) at 21 MPH (18 knots; 9.3 m/s)
Visibility: 6 or more miles (10+ km)
Ceiling: at least 12,000 feet AGL
Clouds: scattered clouds at 2600 feet AGL
Weather: no significant weather observed at this time

METAR text: TLPL 201600Z 09022KT 9999 SCT026 28/21 Q1017 NOSIG
Conditions at: TLPL (HEWANORRA INTL , LC) observed 1600 UTC 20 February 2019
Temperature: 28.0°C (82°F)
Dewpoint: 21.0°C (70°F) [RH = 66%]
Pressure (altimeter): 30.03 inches Hg (1017.0 mb)
Winds: from the E (90 degrees) at 25 MPH (22 knots; 11.3 m/s)
Visibility: 6 or more miles (10+ km)
Ceiling: at least 12,000 feet AGL
Clouds: scattered clouds at 2600 feet AGL
Weather: no significant weather observed at this time

METAR text: TLPL 201500Z 09021KT 9999 FEW025 BKN040 28/21 Q1017 NOSIG
Conditions at: TLPL (HEWANORRA INTL , LC) observed 1500 UTC 20 February 2019
Temperature: 28.0°C (82°F)
Dewpoint: 21.0°C (70°F) [RH = 66%]
Pressure (altimeter): 30.03 inches Hg (1017.0 mb)
Winds: from the E (90 degrees) at 24 MPH (21 knots; 10.8 m/s)
Visibility: 6 or more miles (10+ km)
Ceiling: 4000 feet AGL
Clouds: few clouds at 2500 feet AGL
broken clouds at 4000 feet AGL
Weather: no significant weather observed at this time

Forecast for: TLPL (HEWANORRA INTL , LC)
Text: TAF TLPL 212300Z 2200/2224 08021KT 9999 SCT024
Forecast period: 0000 UTC 22 February 2019 to 0000 UTC 23 February 2019
Forecast type: FROM: standard forecast or significant change
Winds: from the E (80 degrees) at 24 MPH (21 knots; 10.8 m/s)
Visibility: 6 or more miles 10+ km)
Ceiling: at least 12,000 feet AGL
Clouds: scattered clouds at 2400 feet AGL
Weather: no significant weather forecast for this period
Text: TEMPO 2200/2215 SHRA BKN018 SCT040
Forecast period: 0000 to 1500 UTC 22 February 2019
Forecast type: TEMPORARY: The following changes expected for less than half the time period
Visibility: missing
Ceiling: 1800 feet AGL
Clouds: broken clouds at 1800 feet AGL
scattered clouds at 4000 feet AGL
Weather: SHRA  (rain showers)